sensor_id;sensor_type;location;lat;lon;timestamp;P1;durP1;ratioP1;P2;durP2;ratioP2
54454;SDS011;40364;52.270;10.546;2023-07-09T00:00:26;7.22;;;4.88;;
54454;SDS011;40364;52.270;10.546;2023-07-09T00:02:55;5.00;;;4.20;;
54454;SDS011;40364;52.270;10.546;2023-07-09T00:05:21;6.45;;;4.20;;
54454;SDS011;40364;52.270;10.546;2023-07-09T00:07:48;7.90;;;4.50;;
54454;SDS011;40364;52.270;10.546;2023-07-09T00:10:16;8.75;;;4.45;;
54454;SDS011;40364;52.270;10.546;2023-07-09T00:12:43;7.68;;;4.82;;
54454;SDS011;40364;52.270;10.546;2023-07-09T00:15:10;9.13;;;4.55;;
54454;SDS011;40364;52.270;10.546;2023-07-09T00:17:37;7.05;;;5.03;;
54454;SDS011;40364;52.270;10.546;2023-07-09T00:20:09;10.50;;;5.75;;
54454;SDS011;40364;52.270;10.546;2023-07-09T00:22:38;8.85;;;6.20;;
54454;SDS011;40364;52.270;10.546;2023-07-09T00:25:05;7.38;;;5.60;;
54454;SDS011;40364;52.270;10.546;2023-07-09T00:27:32;7.53;;;5.57;;
54454;SDS011;40364;52.270;10.546;2023-07-09T00:29:58;8.73;;;5.68;;
54454;SDS011;40364;52.270;10.546;2023-07-09T00:32:25;11.25;;;5.45;;
54454;SDS011;40364;52.270;10.546;2023-07-09T00:34:53;7.63;;;5.10;;
54454;SDS011;40364;52.270;10.546;2023-07-09T00:37:23;7.30;;;4.38;;
54454;SDS011;40364;52.270;10.546;2023-07-09T00:39:51;7.03;;;4.72;;
54454;SDS011;40364;52.270;10.546;2023-07-09T00:42:18;5.80;;;4.30;;
54454;SDS011;40364;52.270;10.546;2023-07-09T00:44:45;10.32;;;4.72;;
54454;SDS011;40364;52.270;10.546;2023-07-09T00:47:15;6.40;;;4.10;;
54454;SDS011;40364;52.270;10.546;2023-07-09T00:49:43;6.18;;;4.40;;
54454;SDS011;40364;52.270;10.546;2023-07-09T00:52:14;5.03;;;4.40;;
54454;SDS011;40364;52.270;10.546;2023-07-09T00:54:48;6.68;;;4.70;;
54454;SDS011;40364;52.270;10.546;2023-07-09T00:57:16;6.90;;;4.20;;
54454;SDS011;40364;52.270;10.546;2023-07-09T00:59:43;7.78;;;4.18;;
54454;SDS011;40364;52.270;10.546;2023-07-09T01:02:10;5.10;;;4.00;;
54454;SDS011;40364;52.270;10.546;2023-07-09T01:04:36;5.63;;;4.00;;
54454;SDS011;40364;52.270;10.546;2023-07-09T01:07:04;11.00;;;4.43;;
54454;SDS011;40364;52.270;10.546;2023-07-09T01:09:31;7.97;;;4.03;;
54454;SDS011;40364;52.270;10.546;2023-07-09T01:12:01;5.03;;;4.03;;
54454;SDS011;40364;52.270;10.546;2023-07-09T01:14:29;5.13;;;3.88;;
54454;SDS011;40364;52.270;10.546;2023-07-09T01:16:57;7.60;;;4.28;;
54454;SDS011;40364;52.270;10.546;2023-07-09T01:19:25;5.78;;;4.35;;
54454;SDS011;40364;52.270;10.546;2023-07-09T01:21:55;7.63;;;4.55;;
54454;SDS011;40364;52.270;10.546;2023-07-09T01:27:08;6.15;;;4.32;;
54454;SDS011;40364;52.270;10.546;2023-07-09T01:29:38;6.10;;;4.80;;
54454;SDS011;40364;52.270;10.546;2023-07-09T01:32:09;6.38;;;4.25;;
54454;SDS011;40364;52.270;10.546;2023-07-09T01:34:36;5.80;;;4.20;;
54454;SDS011;40364;52.270;10.546;2023-07-09T01:37:06;8.40;;;4.22;;
54454;SDS011;40364;52.270;10.546;2023-07-09T01:39:31;5.70;;;4.05;;
54454;SDS011;40364;52.270;10.546;2023-07-09T01:41:57;6.70;;;4.72;;
54454;SDS011;40364;52.270;10.546;2023-07-09T01:44:24;5.72;;;4.25;;
54454;SDS011;40364;52.270;10.546;2023-07-09T01:46:54;6.35;;;4.78;;
54454;SDS011;40364;52.270;10.546;2023-07-09T01:49:21;8.35;;;3.88;;
54454;SDS011;40364;52.270;10.546;2023-07-09T01:51:47;4.80;;;3.97;;
54454;SDS011;40364;52.270;10.546;2023-07-09T01:54:15;6.45;;;4.15;;
54454;SDS011;40364;52.270;10.546;2023-07-09T01:56:42;5.10;;;3.95;;
54454;SDS011;40364;52.270;10.546;2023-07-09T01:59:08;4.93;;;3.85;;
54454;SDS011;40364;52.270;10.546;2023-07-09T02:01:36;5.93;;;4.20;;
54454;SDS011;40364;52.270;10.546;2023-07-09T02:04:03;5.18;;;4.30;;
54454;SDS011;40364;52.270;10.546;2023-07-09T02:06:29;6.22;;;4.05;;
54454;SDS011;40364;52.270;10.546;2023-07-09T02:08:57;8.48;;;4.70;;
54454;SDS011;40364;52.270;10.546;2023-07-09T02:11:24;7.53;;;4.03;;
54454;SDS011;40364;52.270;10.546;2023-07-09T02:13:51;7.82;;;4.50;;
54454;SDS011;40364;52.270;10.546;2023-07-09T02:16:17;6.40;;;4.40;;
54454;SDS011;40364;52.270;10.546;2023-07-09T02:18:44;5.28;;;3.83;;
54454;SDS011;40364;52.270;10.546;2023-07-09T02:21:10;5.60;;;4.45;;
54454;SDS011;40364;52.270;10.546;2023-07-09T02:23:36;7.55;;;4.47;;
54454;SDS011;40364;52.270;10.546;2023-07-09T02:26:03;6.47;;;4.30;;
54454;SDS011;40364;52.270;10.546;2023-07-09T02:28:30;6.25;;;4.80;;
54454;SDS011;40364;52.270;10.546;2023-07-09T02:30:57;11.23;;;4.88;;
54454;SDS011;40364;52.270;10.546;2023-07-09T02:33:23;5.15;;;4.32;;
54454;SDS011;40364;52.270;10.546;2023-07-09T02:35:49;4.90;;;4.07;;
54454;SDS011;40364;52.270;10.546;2023-07-09T02:38:16;8.40;;;4.57;;
54454;SDS011;40364;52.270;10.546;2023-07-09T02:40:42;6.40;;;4.18;;
54454;SDS011;40364;52.270;10.546;2023-07-09T02:43:09;6.78;;;3.97;;
54454;SDS011;40364;52.270;10.546;2023-07-09T02:45:36;5.80;;;4.10;;
54454;SDS011;40364;52.270;10.546;2023-07-09T02:48:03;8.60;;;4.88;;
54454;SDS011;40364;52.270;10.546;2023-07-09T02:50:29;5.70;;;4.50;;
54454;SDS011;40364;52.270;10.546;2023-07-09T02:52:56;5.80;;;4.40;;
54454;SDS011;40364;52.270;10.546;2023-07-09T02:55:22;8.27;;;4.63;;
54454;SDS011;40364;52.270;10.546;2023-07-09T02:57:48;5.93;;;4.03;;
54454;SDS011;40364;52.270;10.546;2023-07-09T03:00:15;5.97;;;4.22;;
54454;SDS011;40364;52.270;10.546;2023-07-09T03:02:43;10.02;;;4.57;;
54454;SDS011;40364;52.270;10.546;2023-07-09T03:05:09;8.23;;;3.97;;
54454;SDS011;40364;52.270;10.546;2023-07-09T03:07:36;10.85;;;4.40;;
54454;SDS011;40364;52.270;10.546;2023-07-09T03:10:03;7.03;;;4.53;;
54454;SDS011;40364;52.270;10.546;2023-07-09T03:12:29;6.55;;;4.63;;
54454;SDS011;40364;52.270;10.546;2023-07-09T03:14:56;5.82;;;4.10;;
54454;SDS011;40364;52.270;10.546;2023-07-09T03:17:22;8.45;;;4.22;;
54454;SDS011;40364;52.270;10.546;2023-07-09T03:19:50;6.38;;;4.63;;
54454;SDS011;40364;52.270;10.546;2023-07-09T03:22:16;7.72;;;4.40;;
54454;SDS011;40364;52.270;10.546;2023-07-09T03:24:42;4.88;;;4.13;;
54454;SDS011;40364;52.270;10.546;2023-07-09T03:27:09;9.68;;;4.13;;
54454;SDS011;40364;52.270;10.546;2023-07-09T03:29:35;7.75;;;4.43;;
54454;SDS011;40364;52.270;10.546;2023-07-09T03:32:02;8.10;;;4.38;;
54454;SDS011;40364;52.270;10.546;2023-07-09T03:34:28;5.93;;;4.03;;
54454;SDS011;40364;52.270;10.546;2023-07-09T03:36:56;8.88;;;3.90;;
54454;SDS011;40364;52.270;10.546;2023-07-09T03:39:22;7.20;;;4.57;;
54454;SDS011;40364;52.270;10.546;2023-07-09T03:41:49;5.78;;;4.43;;
54454;SDS011;40364;52.270;10.546;2023-07-09T03:44:15;6.00;;;4.18;;
54454;SDS011;40364;52.270;10.546;2023-07-09T03:46:41;4.97;;;4.30;;
54454;SDS011;40364;52.270;10.546;2023-07-09T03:49:08;7.40;;;4.40;;
54454;SDS011;40364;52.270;10.546;2023-07-09T03:51:34;5.88;;;4.30;;
54454;SDS011;40364;52.270;10.546;2023-07-09T03:54:02;10.40;;;4.53;;
54454;SDS011;40364;52.270;10.546;2023-07-09T03:56:28;7.82;;;4.50;;
54454;SDS011;40364;52.270;10.546;2023-07-09T03:58:55;7.15;;;4.72;;
54454;SDS011;40364;52.270;10.546;2023-07-09T04:01:21;6.57;;;4.40;;
54454;SDS011;40364;52.270;10.546;2023-07-09T04:03:48;6.95;;;4.60;;
54454;SDS011;40364;52.270;10.546;2023-07-09T04:06:14;6.65;;;4.13;;
54454;SDS011;40364;52.270;10.546;2023-07-09T04:08:41;7.18;;;4.47;;
54454;SDS011;40364;52.270;10.546;2023-07-09T04:11:08;6.32;;;4.75;;
54454;SDS011;40364;52.270;10.546;2023-07-09T04:13:35;8.05;;;4.60;;
54454;SDS011;40364;52.270;10.546;2023-07-09T04:16:01;5.63;;;4.30;;
54454;SDS011;40364;52.270;10.546;2023-07-09T04:18:28;6.05;;;4.60;;
54454;SDS011;40364;52.270;10.546;2023-07-09T04:20:54;5.75;;;4.50;;
54454;SDS011;40364;52.270;10.546;2023-07-09T04:23:20;6.13;;;4.38;;
54454;SDS011;40364;52.270;10.546;2023-07-09T04:25:47;7.88;;;4.72;;
54454;SDS011;40364;52.270;10.546;2023-07-09T04:28:15;7.78;;;4.60;;
54454;SDS011;40364;52.270;10.546;2023-07-09T04:30:45;7.03;;;4.50;;
54454;SDS011;40364;52.270;10.546;2023-07-09T04:33:13;6.45;;;4.60;;
54454;SDS011;40364;52.270;10.546;2023-07-09T04:35:42;9.25;;;4.65;;
54454;SDS011;40364;52.270;10.546;2023-07-09T04:38:09;7.53;;;4.85;;
54454;SDS011;40364;52.270;10.546;2023-07-09T04:40:35;7.32;;;4.93;;
54454;SDS011;40364;52.270;10.546;2023-07-09T04:43:02;6.57;;;4.78;;
54454;SDS011;40364;52.270;10.546;2023-07-09T04:45:29;7.43;;;5.13;;
54454;SDS011;40364;52.270;10.546;2023-07-09T04:47:56;5.82;;;4.45;;
54454;SDS011;40364;52.270;10.546;2023-07-09T04:50:22;8.60;;;4.88;;
54454;SDS011;40364;52.270;10.546;2023-07-09T04:52:48;6.50;;;4.25;;
54454;SDS011;40364;52.270;10.546;2023-07-09T04:55:15;6.28;;;5.15;;
54454;SDS011;40364;52.270;10.546;2023-07-09T04:57:44;6.95;;;4.57;;
54454;SDS011;40364;52.270;10.546;2023-07-09T05:00:10;5.55;;;4.10;;
54454;SDS011;40364;52.270;10.546;2023-07-09T05:02:39;5.60;;;4.82;;
54454;SDS011;40364;52.270;10.546;2023-07-09T05:05:05;6.72;;;4.72;;
54454;SDS011;40364;52.270;10.546;2023-07-09T05:07:32;11.30;;;5.18;;
54454;SDS011;40364;52.270;10.546;2023-07-09T05:09:59;6.03;;;4.57;;
54454;SDS011;40364;52.270;10.546;2023-07-09T05:12:25;6.15;;;4.63;;
54454;SDS011;40364;52.270;10.546;2023-07-09T05:14:52;7.53;;;4.28;;
54454;SDS011;40364;52.270;10.546;2023-07-09T05:17:18;5.30;;;4.03;;
54454;SDS011;40364;52.270;10.546;2023-07-09T05:19:46;5.97;;;4.70;;
54454;SDS011;40364;52.270;10.546;2023-07-09T05:22:12;6.85;;;5.03;;
54454;SDS011;40364;52.270;10.546;2023-07-09T05:24:39;6.25;;;4.43;;
54454;SDS011;40364;52.270;10.546;2023-07-09T05:27:06;5.97;;;4.65;;
54454;SDS011;40364;52.270;10.546;2023-07-09T05:29:33;6.55;;;4.63;;
54454;SDS011;40364;52.270;10.546;2023-07-09T05:31:59;6.53;;;4.97;;
54454;SDS011;40364;52.270;10.546;2023-07-09T05:34:25;5.68;;;4.18;;
54454;SDS011;40364;52.270;10.546;2023-07-09T05:36:53;6.70;;;4.88;;
54454;SDS011;40364;52.270;10.546;2023-07-09T05:39:20;5.97;;;4.75;;
54454;SDS011;40364;52.270;10.546;2023-07-09T05:41:46;5.82;;;4.82;;
54454;SDS011;40364;52.270;10.546;2023-07-09T05:44:13;6.95;;;4.93;;
54454;SDS011;40364;52.270;10.546;2023-07-09T05:46:39;6.88;;;4.80;;
54454;SDS011;40364;52.270;10.546;2023-07-09T05:49:05;7.75;;;5.00;;
54454;SDS011;40364;52.270;10.546;2023-07-09T05:51:32;4.93;;;4.10;;
54454;SDS011;40364;52.270;10.546;2023-07-09T05:54:00;6.75;;;4.65;;
54454;SDS011;40364;52.270;10.546;2023-07-09T05:56:26;8.30;;;4.97;;
54454;SDS011;40364;52.270;10.546;2023-07-09T05:58:53;5.70;;;4.80;;
54454;SDS011;40364;52.270;10.546;2023-07-09T06:01:21;5.55;;;4.68;;
54454;SDS011;40364;52.270;10.546;2023-07-09T06:03:48;8.73;;;4.68;;
54454;SDS011;40364;52.270;10.546;2023-07-09T06:06:15;5.63;;;4.70;;
54454;SDS011;40364;52.270;10.546;2023-07-09T06:08:42;8.32;;;4.35;;
54454;SDS011;40364;52.270;10.546;2023-07-09T06:11:10;8.70;;;4.50;;
54454;SDS011;40364;52.270;10.546;2023-07-09T06:13:36;7.00;;;4.47;;
54454;SDS011;40364;52.270;10.546;2023-07-09T06:16:02;7.70;;;4.18;;
54454;SDS011;40364;52.270;10.546;2023-07-09T06:18:29;6.72;;;4.10;;
54454;SDS011;40364;52.270;10.546;2023-07-09T06:20:56;7.65;;;4.60;;
54454;SDS011;40364;52.270;10.546;2023-07-09T06:23:23;5.68;;;4.55;;
54454;SDS011;40364;52.270;10.546;2023-07-09T06:25:49;6.57;;;4.93;;
54454;SDS011;40364;52.270;10.546;2023-07-09T06:28:18;5.45;;;4.60;;
54454;SDS011;40364;52.270;10.546;2023-07-09T06:30:45;5.68;;;4.75;;
54454;SDS011;40364;52.270;10.546;2023-07-09T06:33:12;5.55;;;4.95;;
54454;SDS011;40364;52.270;10.546;2023-07-09T06:35:45;7.88;;;4.95;;
54454;SDS011;40364;52.270;10.546;2023-07-09T06:38:11;7.47;;;4.43;;
54454;SDS011;40364;52.270;10.546;2023-07-09T06:40:38;6.93;;;4.65;;
54454;SDS011;40364;52.270;10.546;2023-07-09T06:43:04;5.30;;;4.40;;
54454;SDS011;40364;52.270;10.546;2023-07-09T06:45:32;4.88;;;4.38;;
54454;SDS011;40364;52.270;10.546;2023-07-09T06:47:59;5.90;;;4.95;;
54454;SDS011;40364;52.270;10.546;2023-07-09T06:50:25;6.18;;;5.55;;
54454;SDS011;40364;52.270;10.546;2023-07-09T06:52:52;5.60;;;4.68;;
54454;SDS011;40364;52.270;10.546;2023-07-09T06:55:18;5.18;;;4.63;;
54454;SDS011;40364;52.270;10.546;2023-07-09T06:57:44;5.32;;;4.18;;
54454;SDS011;40364;52.270;10.546;2023-07-09T07:00:11;7.00;;;5.38;;
54454;SDS011;40364;52.270;10.546;2023-07-09T07:02:39;12.60;;;4.97;;
54454;SDS011;40364;52.270;10.546;2023-07-09T07:05:05;6.07;;;5.03;;
54454;SDS011;40364;52.270;10.546;2023-07-09T07:07:32;6.82;;;5.03;;
54454;SDS011;40364;52.270;10.546;2023-07-09T07:09:58;5.43;;;4.50;;
54454;SDS011;40364;52.270;10.546;2023-07-09T07:12:25;7.97;;;5.47;;
54454;SDS011;40364;52.270;10.546;2023-07-09T07:14:52;5.63;;;4.68;;
54454;SDS011;40364;52.270;10.546;2023-07-09T07:17:18;5.88;;;4.85;;
54454;SDS011;40364;52.270;10.546;2023-07-09T07:19:46;6.25;;;5.05;;
54454;SDS011;40364;52.270;10.546;2023-07-09T07:22:13;8.30;;;5.20;;
54454;SDS011;40364;52.270;10.546;2023-07-09T07:24:39;12.95;;;5.30;;
54454;SDS011;40364;52.270;10.546;2023-07-09T07:27:05;7.45;;;5.00;;
54454;SDS011;40364;52.270;10.546;2023-07-09T07:29:32;7.25;;;4.68;;
54454;SDS011;40364;52.270;10.546;2023-07-09T07:31:58;6.47;;;4.82;;
54454;SDS011;40364;52.270;10.546;2023-07-09T07:34:25;10.20;;;4.95;;
54454;SDS011;40364;52.270;10.546;2023-07-09T07:36:53;11.75;;;5.15;;
54454;SDS011;40364;52.270;10.546;2023-07-09T07:39:20;5.78;;;5.05;;
54454;SDS011;40364;52.270;10.546;2023-07-09T07:41:46;6.35;;;4.60;;
54454;SDS011;40364;52.270;10.546;2023-07-09T07:44:12;6.55;;;5.25;;
54454;SDS011;40364;52.270;10.546;2023-07-09T07:46:39;6.90;;;5.00;;
54454;SDS011;40364;52.270;10.546;2023-07-09T07:49:05;6.57;;;5.07;;
54454;SDS011;40364;52.270;10.546;2023-07-09T07:51:31;10.68;;;5.03;;
54454;SDS011;40364;52.270;10.546;2023-07-09T07:54:00;6.28;;;4.93;;
54454;SDS011;40364;52.270;10.546;2023-07-09T07:56:26;7.80;;;5.20;;
54454;SDS011;40364;52.270;10.546;2023-07-09T07:58:53;7.63;;;4.88;;
54454;SDS011;40364;52.270;10.546;2023-07-09T08:01:19;6.80;;;4.80;;
54454;SDS011;40364;52.270;10.546;2023-07-09T08:03:45;6.18;;;5.00;;
54454;SDS011;40364;52.270;10.546;2023-07-09T08:06:12;6.47;;;4.63;;
54454;SDS011;40364;52.270;10.546;2023-07-09T08:08:38;5.40;;;4.78;;
54454;SDS011;40364;52.270;10.546;2023-07-09T08:11:06;5.65;;;4.57;;
54454;SDS011;40364;52.270;10.546;2023-07-09T08:13:33;5.78;;;4.97;;
54454;SDS011;40364;52.270;10.546;2023-07-09T08:15:59;5.80;;;4.95;;
54454;SDS011;40364;52.270;10.546;2023-07-09T08:18:25;8.13;;;4.90;;
54454;SDS011;40364;52.270;10.546;2023-07-09T08:20:52;12.93;;;5.13;;
54454;SDS011;40364;52.270;10.546;2023-07-09T08:23:18;5.60;;;4.60;;
54454;SDS011;40364;52.270;10.546;2023-07-09T08:25:51;7.93;;;4.97;;
54454;SDS011;40364;52.270;10.546;2023-07-09T08:28:19;10.10;;;5.20;;
54454;SDS011;40364;52.270;10.546;2023-07-09T08:30:46;5.93;;;5.18;;
54454;SDS011;40364;52.270;10.546;2023-07-09T08:33:12;10.07;;;5.28;;
54454;SDS011;40364;52.270;10.546;2023-07-09T08:35:39;5.03;;;4.30;;
54454;SDS011;40364;52.270;10.546;2023-07-09T08:38:07;5.57;;;4.60;;
54454;SDS011;40364;52.270;10.546;2023-07-09T08:40:35;6.25;;;4.70;;
54454;SDS011;40364;52.270;10.546;2023-07-09T08:43:05;5.45;;;4.78;;
54454;SDS011;40364;52.270;10.546;2023-07-09T08:45:38;9.27;;;5.10;;
54454;SDS011;40364;52.270;10.546;2023-07-09T08:48:08;6.57;;;4.65;;
54454;SDS011;40364;52.270;10.546;2023-07-09T08:50:36;6.05;;;4.78;;
54454;SDS011;40364;52.270;10.546;2023-07-09T08:53:04;5.32;;;4.65;;
54454;SDS011;40364;52.270;10.546;2023-07-09T08:55:32;9.90;;;5.63;;
54454;SDS011;40364;52.270;10.546;2023-07-09T08:58:08;5.47;;;4.57;;
54454;SDS011;40364;52.270;10.546;2023-07-09T09:00:37;7.97;;;4.35;;
54454;SDS011;40364;52.270;10.546;2023-07-09T09:03:08;7.85;;;4.50;;
54454;SDS011;40364;52.270;10.546;2023-07-09T09:05:37;4.68;;;4.22;;
54454;SDS011;40364;52.270;10.546;2023-07-09T09:08:09;4.95;;;4.43;;
54454;SDS011;40364;52.270;10.546;2023-07-09T09:10:39;5.85;;;4.28;;
54454;SDS011;40364;52.270;10.546;2023-07-09T09:13:08;5.43;;;4.85;;
54454;SDS011;40364;52.270;10.546;2023-07-09T09:15:38;7.18;;;4.80;;
54454;SDS011;40364;52.270;10.546;2023-07-09T09:18:15;5.90;;;4.38;;
54454;SDS011;40364;52.270;10.546;2023-07-09T09:20:42;7.70;;;4.38;;
54454;SDS011;40364;52.270;10.546;2023-07-09T09:23:12;6.10;;;4.45;;
54454;SDS011;40364;52.270;10.546;2023-07-09T09:25:39;6.20;;;4.07;;
54454;SDS011;40364;52.270;10.546;2023-07-09T09:28:07;7.95;;;4.50;;
54454;SDS011;40364;52.270;10.546;2023-07-09T09:30:33;5.30;;;4.03;;
54454;SDS011;40364;52.270;10.546;2023-07-09T09:33:01;6.97;;;4.35;;
54454;SDS011;40364;52.270;10.546;2023-07-09T09:35:29;4.57;;;3.95;;
54454;SDS011;40364;52.270;10.546;2023-07-09T09:37:56;5.20;;;4.35;;
54454;SDS011;40364;52.270;10.546;2023-07-09T09:40:23;6.40;;;4.60;;
54454;SDS011;40364;52.270;10.546;2023-07-09T09:42:50;6.63;;;4.72;;
54454;SDS011;40364;52.270;10.546;2023-07-09T09:45:18;4.78;;;4.30;;
54454;SDS011;40364;52.270;10.546;2023-07-09T09:47:46;5.18;;;4.28;;
54454;SDS011;40364;52.270;10.546;2023-07-09T09:50:14;6.10;;;4.65;;
54454;SDS011;40364;52.270;10.546;2023-07-09T09:52:42;8.23;;;4.82;;
54454;SDS011;40364;52.270;10.546;2023-07-09T09:55:10;4.85;;;4.03;;
54454;SDS011;40364;52.270;10.546;2023-07-09T09:57:37;4.97;;;3.88;;
54454;SDS011;40364;52.270;10.546;2023-07-09T10:00:04;5.82;;;3.92;;
54454;SDS011;40364;52.270;10.546;2023-07-09T10:02:37;5.32;;;3.67;;
54454;SDS011;40364;52.270;10.546;2023-07-09T10:05:10;3.90;;;3.53;;
54454;SDS011;40364;52.270;10.546;2023-07-09T10:07:39;4.78;;;3.40;;
54454;SDS011;40364;52.270;10.546;2023-07-09T10:10:09;4.47;;;3.90;;
54454;SDS011;40364;52.270;10.546;2023-07-09T10:12:39;6.50;;;4.35;;
54454;SDS011;40364;52.270;10.546;2023-07-09T10:15:16;5.68;;;3.80;;
54454;SDS011;40364;52.270;10.546;2023-07-09T10:17:47;4.70;;;3.60;;
54454;SDS011;40364;52.270;10.546;2023-07-09T10:20:18;5.90;;;3.60;;
54454;SDS011;40364;52.270;10.546;2023-07-09T10:22:50;5.53;;;3.70;;
54454;SDS011;40364;52.270;10.546;2023-07-09T10:25:21;6.50;;;3.80;;
54454;SDS011;40364;52.270;10.546;2023-07-09T10:27:55;8.20;;;3.80;;
54454;SDS011;40364;52.270;10.546;2023-07-09T10:30:27;5.40;;;3.65;;
54454;SDS011;40364;52.270;10.546;2023-07-09T10:33:01;7.75;;;3.08;;
54454;SDS011;40364;52.270;10.546;2023-07-09T10:35:30;7.43;;;3.70;;
54454;SDS011;40364;52.270;10.546;2023-07-09T10:38:03;4.32;;;3.70;;
54454;SDS011;40364;52.270;10.546;2023-07-09T10:43:00;6.25;;;3.80;;
54454;SDS011;40364;52.270;10.546;2023-07-09T10:45:28;3.90;;;3.13;;
54454;SDS011;40364;52.270;10.546;2023-07-09T10:47:55;5.70;;;3.90;;
54454;SDS011;40364;52.270;10.546;2023-07-09T10:50:24;5.88;;;3.80;;
54454;SDS011;40364;52.270;10.546;2023-07-09T10:52:53;11.98;;;4.30;;
54454;SDS011;40364;52.270;10.546;2023-07-09T10:55:23;4.43;;;3.67;;
54454;SDS011;40364;52.270;10.546;2023-07-09T10:57:54;6.32;;;3.70;;
54454;SDS011;40364;52.270;10.546;2023-07-09T11:00:24;7.20;;;3.80;;
54454;SDS011;40364;52.270;10.546;2023-07-09T11:02:55;5.00;;;3.38;;
54454;SDS011;40364;52.270;10.546;2023-07-09T11:05:24;4.78;;;3.60;;
54454;SDS011;40364;52.270;10.546;2023-07-09T11:07:54;5.78;;;3.80;;
54454;SDS011;40364;52.270;10.546;2023-07-09T11:10:26;8.85;;;3.58;;
54454;SDS011;40364;52.270;10.546;2023-07-09T11:12:55;4.88;;;3.90;;
54454;SDS011;40364;52.270;10.546;2023-07-09T11:15:23;6.53;;;3.42;;
54454;SDS011;40364;52.270;10.546;2023-07-09T11:17:51;6.47;;;3.42;;
54454;SDS011;40364;52.270;10.546;2023-07-09T11:20:18;5.22;;;3.60;;
54454;SDS011;40364;52.270;10.546;2023-07-09T11:22:51;5.70;;;3.70;;
54454;SDS011;40364;52.270;10.546;2023-07-09T11:25:27;5.72;;;3.42;;
54454;SDS011;40364;52.270;10.546;2023-07-09T11:28:04;5.68;;;3.20;;
54454;SDS011;40364;52.270;10.546;2023-07-09T11:30:30;4.78;;;3.40;;
54454;SDS011;40364;52.270;10.546;2023-07-09T11:32:58;4.70;;;3.60;;
54454;SDS011;40364;52.270;10.546;2023-07-09T11:35:25;5.60;;;3.63;;
54454;SDS011;40364;52.270;10.546;2023-07-09T11:37:52;4.60;;;3.30;;
54454;SDS011;40364;52.270;10.546;2023-07-09T11:40:20;4.68;;;3.60;;
54454;SDS011;40364;52.270;10.546;2023-07-09T11:42:49;4.47;;;3.42;;
54454;SDS011;40364;52.270;10.546;2023-07-09T11:45:17;3.83;;;3.33;;
54454;SDS011;40364;52.270;10.546;2023-07-09T11:47:46;4.38;;;3.53;;
54454;SDS011;40364;52.270;10.546;2023-07-09T11:50:17;5.82;;;3.30;;
54454;SDS011;40364;52.270;10.546;2023-07-09T11:52:47;3.67;;;3.35;;
54454;SDS011;40364;52.270;10.546;2023-07-09T11:55:18;3.95;;;3.30;;
54454;SDS011;40364;52.270;10.546;2023-07-09T11:57:46;5.95;;;3.30;;
54454;SDS011;40364;52.270;10.546;2023-07-09T12:00:15;5.30;;;3.30;;
54454;SDS011;40364;52.270;10.546;2023-07-09T12:02:41;4.35;;;3.30;;
54454;SDS011;40364;52.270;10.546;2023-07-09T12:05:08;5.28;;;3.05;;
54454;SDS011;40364;52.270;10.546;2023-07-09T12:07:35;8.52;;;3.13;;
54454;SDS011;40364;52.270;10.546;2023-07-09T12:10:03;5.30;;;3.83;;
54454;SDS011;40364;52.270;10.546;2023-07-09T12:12:29;3.90;;;3.45;;
54454;SDS011;40364;52.270;10.546;2023-07-09T12:14:56;4.38;;;3.33;;
54454;SDS011;40364;52.270;10.546;2023-07-09T12:17:25;5.95;;;3.50;;
54454;SDS011;40364;52.270;10.546;2023-07-09T12:19:53;4.78;;;3.50;;
54454;SDS011;40364;52.270;10.546;2023-07-09T12:22:20;3.70;;;3.38;;
54454;SDS011;40364;52.270;10.546;2023-07-09T12:24:47;5.32;;;3.70;;
54454;SDS011;40364;52.270;10.546;2023-07-09T12:27:18;3.50;;;3.20;;
54454;SDS011;40364;52.270;10.546;2023-07-09T12:29:45;5.13;;;3.72;;
54454;SDS011;40364;52.270;10.546;2023-07-09T12:32:12;5.05;;;3.45;;
54454;SDS011;40364;52.270;10.546;2023-07-09T12:34:41;5.70;;;3.35;;
54454;SDS011;40364;52.270;10.546;2023-07-09T12:37:07;5.25;;;3.10;;
54454;SDS011;40364;52.270;10.546;2023-07-09T12:39:37;3.85;;;3.45;;
54454;SDS011;40364;52.270;10.546;2023-07-09T12:42:04;5.13;;;3.30;;
54454;SDS011;40364;52.270;10.546;2023-07-09T12:44:31;4.10;;;3.22;;
54454;SDS011;40364;52.270;10.546;2023-07-09T12:47:01;5.45;;;3.75;;
54454;SDS011;40364;52.270;10.546;2023-07-09T12:49:28;4.10;;;3.55;;
54454;SDS011;40364;52.270;10.546;2023-07-09T12:51:56;4.65;;;3.50;;
54454;SDS011;40364;52.270;10.546;2023-07-09T12:54:23;4.95;;;3.40;;
54454;SDS011;40364;52.270;10.546;2023-07-09T12:56:50;5.72;;;3.38;;
54454;SDS011;40364;52.270;10.546;2023-07-09T12:59:18;4.70;;;3.63;;
54454;SDS011;40364;52.270;10.546;2023-07-09T13:01:47;4.32;;;3.22;;
54454;SDS011;40364;52.270;10.546;2023-07-09T13:04:14;4.13;;;3.72;;
54454;SDS011;40364;52.270;10.546;2023-07-09T13:06:40;5.07;;;3.33;;
54454;SDS011;40364;52.270;10.546;2023-07-09T13:09:11;8.85;;;4.25;;
54454;SDS011;40364;52.270;10.546;2023-07-09T13:11:39;4.57;;;3.40;;
54454;SDS011;40364;52.270;10.546;2023-07-09T13:14:11;5.68;;;3.70;;
54454;SDS011;40364;52.270;10.546;2023-07-09T13:16:41;3.95;;;3.60;;
54454;SDS011;40364;52.270;10.546;2023-07-09T13:19:08;5.18;;;3.65;;
54454;SDS011;40364;52.270;10.546;2023-07-09T13:21:34;6.50;;;3.60;;
54454;SDS011;40364;52.270;10.546;2023-07-09T13:24:04;5.53;;;4.03;;
54454;SDS011;40364;52.270;10.546;2023-07-09T13:26:32;7.07;;;4.13;;
54454;SDS011;40364;52.270;10.546;2023-07-09T13:28:58;6.93;;;5.05;;
54454;SDS011;40364;52.270;10.546;2023-07-09T13:31:26;5.75;;;5.05;;
54454;SDS011;40364;52.270;10.546;2023-07-09T13:33:54;5.78;;;5.00;;
54454;SDS011;40364;52.270;10.546;2023-07-09T13:36:21;5.10;;;4.22;;
54454;SDS011;40364;52.270;10.546;2023-07-09T13:38:47;4.95;;;4.43;;
54454;SDS011;40364;52.270;10.546;2023-07-09T13:41:16;4.90;;;4.32;;
54454;SDS011;40364;52.270;10.546;2023-07-09T13:43:45;5.43;;;4.47;;
54454;SDS011;40364;52.270;10.546;2023-07-09T13:46:12;4.90;;;4.15;;
54454;SDS011;40364;52.270;10.546;2023-07-09T13:48:40;6.28;;;4.32;;
54454;SDS011;40364;52.270;10.546;2023-07-09T13:51:11;6.93;;;4.00;;
54454;SDS011;40364;52.270;10.546;2023-07-09T13:53:39;4.47;;;3.80;;
54454;SDS011;40364;52.270;10.546;2023-07-09T13:56:05;4.80;;;3.90;;
54454;SDS011;40364;52.270;10.546;2023-07-09T13:58:33;4.38;;;3.97;;
54454;SDS011;40364;52.270;10.546;2023-07-09T14:01:10;4.22;;;3.63;;
54454;SDS011;40364;52.270;10.546;2023-07-09T14:03:37;4.00;;;3.58;;
54454;SDS011;40364;52.270;10.546;2023-07-09T14:06:08;3.92;;;3.53;;
54454;SDS011;40364;52.270;10.546;2023-07-09T14:08:37;4.90;;;3.75;;
54454;SDS011;40364;52.270;10.546;2023-07-09T14:11:07;4.57;;;3.20;;
54454;SDS011;40364;52.270;10.546;2023-07-09T14:13:34;5.90;;;4.00;;
54454;SDS011;40364;52.270;10.546;2023-07-09T14:16:00;6.85;;;4.20;;
54454;SDS011;40364;52.270;10.546;2023-07-09T14:18:29;4.13;;;3.70;;
54454;SDS011;40364;52.270;10.546;2023-07-09T14:20:56;6.03;;;3.50;;
54454;SDS011;40364;52.270;10.546;2023-07-09T14:23:22;3.80;;;3.30;;
54454;SDS011;40364;52.270;10.546;2023-07-09T14:25:50;6.22;;;4.10;;
54454;SDS011;40364;52.270;10.546;2023-07-09T14:28:17;6.95;;;3.70;;
54454;SDS011;40364;52.270;10.546;2023-07-09T14:30:44;4.93;;;3.60;;
54454;SDS011;40364;52.270;10.546;2023-07-09T14:33:12;6.82;;;3.60;;
54454;SDS011;40364;52.270;10.546;2023-07-09T14:35:40;4.13;;;3.60;;
54454;SDS011;40364;52.270;10.546;2023-07-09T14:38:11;5.45;;;3.60;;
54454;SDS011;40364;52.270;10.546;2023-07-09T14:40:42;4.53;;;3.70;;